Isle of Bute, United Kingdom
Current Conditions -  °F | °C
As of 8:50 PM on Sunday 23 Nov 2014 (Local Time) from EGPF Reporting Station
Light Rain Light Rain  
Wind Chill: 39°   Ceiling: 3600
Heat Index: 43°   Visibility: 6mi
Dew Point: 39°   Wind: 7mph
Humidity: 87%   Direction: 240°WSW
Pressure: 30.03"   Gusts: NA
Location:  55.84°N, 5.05°W
Report Text: EGPF 232050Z AUTO 24006KT 9999 -RA SCT021 BKN036 06/04 Q1017 RERA
Loading
Personal Weather Stations






























Interactive Weather Map New forecast layout! Learn more

10-Day Weather Forecast

Advertisements
Track Severe Weather on mobile